Princeton, Ohio
Current Conditions -  °F | °C
As of 12:53 PM on Friday 31 Oct 2014 (Local Time) from KHAO Reporting Station
Moderate Rain Moderate Rain  
Wind Chill: 40°   Ceiling: 2500
Heat Index: 45°   Visibility: 4mi
Dew Point: 42°   Wind: 9mph
Humidity: 90%   Direction: 290°WNW
Pressure: 29.95"   Gusts: NA
Location:  39.3622°N, 84.5372°W
Report Text: KHAO 311653Z AUTO 29008KT 4SM RA BR FEW013 OVC025 07/06 A2995 RMK AO2 SLP144 P0004 T00720056
Loading
Personal Weather Stations






























Interactive Weather Map
Tropical Storm Tracking
New forecast layout! Learn more

10-Day Weather Forecast

Advertisements
Track Severe Weather on mobile